Time;durP1;ratioP1;P1;durP2;ratioP2;P2;SDS_P1;SDS_P2;PMS_P1;PMS_P2;Temp;Humidity;BMP_temperature;BMP_pressure;BME280_temperature;BME280_humidity;BME280_pressure;Samples;Min_cycle;Max_cycle;Signal;HPM_P1;HPM_P2
2022/02/05 00:01:32;;;;;;;2.03;1.20;;;18.20;57.10;;;;;;5048181;28;20180;-83
2022/02/05 00:04:05;;;;;;;1.60;0.98;;;18.20;57.60;;;;;;5047479;28;20231;-83
2022/02/05 00:06:36;;;;;;;2.15;1.30;;;18.20;57.60;;;;;;5012783;28;20659;-82
2022/02/05 00:09:12;;;;;;;1.73;1.13;;;18.10;57.40;;;;;;5026555;28;20184;-83
2022/02/05 00:12:04;;;;;;;3.90;1.13;;;18.10;57.50;;;;;;5094207;28;20244;-82
2022/02/05 00:14:41;;;;;;;1.45;1.17;;;18.10;57.50;;;;;;5036889;28;20202;-82
2022/02/05 00:38:18;;;;;;;1.70;1.10;;;18.10;57.70;;;;;;5032821;28;20183;-83
2022/02/05 00:41:44;;;;;;;2.15;1.27;;;18.10;57.60;;;;;;5036867;28;20188;-83
2022/02/05 00:44:13;;;;;;;1.65;1.00;;;18.20;57.70;;;;;;5064873;28;20207;-82
2022/02/05 00:46:42;;;;;;;1.70;1.05;;;18.10;57.70;;;;;;5041478;28;20181;-83
2022/02/05 00:49:11;;;;;;;1.55;1.25;;;18.10;57.80;;;;;;5009180;28;20666;-83
2022/02/05 00:51:46;;;;;;;3.05;1.05;;;18.10;57.80;;;;;;5042431;28;20184;-82
2022/02/05 00:54:18;;;;;;;0.93;0.80;;;18.00;57.80;;;;;;5045108;28;20202;-82
2022/02/05 00:56:56;;;;;;;2.20;0.98;;;18.00;57.80;;;;;;5043294;28;20184;-83
2022/02/05 00:59:21;;;;;;;1.10;0.95;;;18.00;57.50;;;;;;5094194;28;20164;-83
2022/02/05 01:01:48;;;;;;;2.15;1.20;;;18.00;57.80;;;;;;5041964;28;20163;-83
2022/02/05 01:04:13;;;;;;;2.17;1.23;;;18.00;57.40;;;;;;5042256;28;20208;-83
2022/02/05 01:06:40;;;;;;;1.40;1.00;;;18.00;57.80;;;;;;5058846;28;20179;-83
2022/02/05 01:09:10;;;;;;;1.55;0.85;;;18.00;57.80;;;;;;5074936;28;20598;-83
2022/02/05 01:11:38;;;;;;;2.33;1.20;;;18.00;57.50;;;;;;5059166;28;20157;-82
2022/02/05 01:14:09;;;;;;;1.08;0.93;;;18.00;57.80;;;;;;5025280;28;20259;-82
2022/02/05 01:16:53;;;;;;;1.33;1.05;;;18.00;57.60;;;;;;5043134;28;20176;-82
2022/02/05 01:20:04;;;;;;;1.73;1.15;;;18.00;57.60;;;;;;5034484;28;20188;-83
2022/02/05 01:22:09;;;;;;;1.40;0.98;;;18.00;57.60;;;;;;5035743;28;20180;-83
2022/02/05 01:24:38;;;;;;;3.22;1.40;;;18.00;57.60;;;;;;5042480;28;20201;-83
2022/02/05 01:27:11;;;;;;;1.98;1.00;;;18.00;57.50;;;;;;5041724;28;20681;-82
2022/02/05 01:30:02;;;;;;;1.98;1.10;;;18.00;58.20;;;;;;5027124;28;20223;-83
2022/02/05 01:32:28;;;;;;;1.42;1.10;;;18.00;57.60;;;;;;5035958;28;20184;-83
2022/02/05 01:35:05;;;;;;;1.92;1.00;;;18.00;57.50;;;;;;5042815;28;20180;-83
2022/02/05 01:51:08;;;;;;;1.48;1.15;;;18.00;57.50;;;;;;5061400;28;20172;-82
2022/02/05 01:56:28;;;;;;;1.73;1.00;;;18.00;57.10;;;;;;5030875;28;20204;-83
2022/02/05 01:59:12;;;;;;;1.25;0.88;;;18.10;57.50;;;;;;5046786;28;20175;-82
2022/02/05 02:07:25;;;;;;;1.40;1.20;;;18.00;57.50;;;;;;5032942;28;20201;-83
2022/02/05 02:10:12;;;;;;;1.38;1.08;;;18.00;57.80;;;;;;5038818;28;20204;-83
2022/02/05 02:12:42;;;;;;;1.35;1.00;;;18.00;57.50;;;;;;5081148;28;20199;-83
2022/02/05 02:15:25;;;;;;;1.90;1.00;;;18.00;57.70;;;;;;5047327;28;20188;-82
2022/02/05 02:23:54;;;;;;;2.72;0.88;;;18.00;57.60;;;;;;5080870;28;20251;-83
2022/02/05 02:26:47;;;;;;;1.90;1.25;;;18.00;57.60;;;;;;5052948;28;20176;-83
2022/02/05 02:29:12;;;;;;;1.15;0.98;;;17.90;57.70;;;;;;5039129;28;20173;-82
2022/02/05 02:31:43;;;;;;;2.30;1.20;;;18.00;57.60;;;;;;5063105;28;20180;-83
2022/02/05 02:34:15;;;;;;;2.33;1.00;;;17.90;57.50;;;;;;5045773;28;20538;-83
2022/02/05 02:36:49;;;;;;;1.40;0.98;;;18.00;57.70;;;;;;5078767;28;20188;-83
2022/02/05 02:39:21;;;;;;;1.35;0.90;;;18.00;57.50;;;;;;5063907;28;20306;-83
2022/02/05 02:41:52;;;;;;;2.22;0.98;;;17.90;57.50;;;;;;5095910;28;20155;-83
2022/02/05 02:44:18;;;;;;;1.40;1.10;;;17.90;57.60;;;;;;5062727;28;20180;-84
2022/02/05 02:46:44;;;;;;;1.80;0.90;;;17.90;57.70;;;;;;5060916;28;20581;-82
2022/02/05 02:49:14;;;;;;;2.30;0.93;;;17.90;57.60;;;;;;5077966;28;20259;-83
2022/02/05 02:57:17;;;;;;;1.48;1.08;;;17.90;57.80;;;;;;5034038;28;20181;-82
2022/02/05 02:59:56;;;;;;;1.10;0.80;;;17.90;57.60;;;;;;5048507;28;20188;-83
2022/02/05 03:02:25;;;;;;;2.15;1.17;;;17.90;57.50;;;;;;5063118;28;20245;-83
2022/02/05 03:04:53;;;;;;;1.52;0.90;;;17.90;57.50;;;;;;5043625;28;20204;-83
2022/02/05 03:07:21;;;;;;;1.30;1.00;;;18.00;57.30;;;;;;5044720;28;20183;-82
2022/02/05 03:09:46;;;;;;;2.15;1.20;;;17.90;57.60;;;;;;5027077;28;20212;-82
2022/02/05 03:12:13;;;;;;;1.92;1.33;;;17.90;57.90;;;;;;5043702;28;20550;-83
2022/02/05 03:14:40;;;;;;;1.20;1.10;;;17.90;57.70;;;;;;5060480;28;20172;-82
2022/02/05 03:19:49;;;;;;;1.80;1.17;;;17.90;57.90;;;;;;5079309;28;20164;-82
2022/02/05 03:22:17;;;;;;;1.63;0.95;;;18.00;57.70;;;;;;5076965;28;20205;-82
2022/02/05 03:24:43;;;;;;;2.60;1.10;;;17.90;57.50;;;;;;5060743;28;20239;-82
2022/02/05 03:27:11;;;;;;;1.65;1.20;;;17.90;57.60;;;;;;5076950;28;20631;-83
2022/02/05 03:29:37;;;;;;;3.03;1.17;;;17.90;57.70;;;;;;5095063;28;20153;-82
2022/02/05 03:32:04;;;;;;;1.98;1.40;;;17.90;57.40;;;;;;5077022;28;20151;-82
2022/02/05 03:34:29;;;;;;;1.50;0.95;;;17.90;57.40;;;;;;5093510;28;20163;-83
2022/02/05 03:36:56;;;;;;;1.30;1.00;;;17.90;57.40;;;;;;5076694;28;20149;-83
2022/02/05 03:39:23;;;;;;;4.28;1.10;;;17.90;57.60;;;;;;5042880;28;20188;-83
2022/02/05 03:41:50;;;;;;;2.45;1.20;;;17.90;57.70;;;;;;5026426;28;20651;-82
2022/02/05 03:44:17;;;;;;;1.98;1.02;;;17.90;57.80;;;;;;5059140;28;20262;-83
2022/02/05 03:46:43;;;;;;;1.25;1.02;;;17.90;57.60;;;;;;5094524;28;20322;-82
2022/02/05 03:49:11;;;;;;;1.73;1.08;;;17.90;57.60;;;;;;5060239;28;20282;-82
2022/02/05 03:51:37;;;;;;;1.27;1.05;;;17.90;57.60;;;;;;5076586;28;20559;-82
2022/02/05 03:54:04;;;;;;;1.60;1.20;;;17.90;57.60;;;;;;5076304;28;20157;-82
2022/02/05 03:56:30;;;;;;;1.00;0.90;;;17.90;57.70;;;;;;5059493;28;20168;-83
2022/02/05 03:58:55;;;;;;;1.95;1.05;;;17.90;57.70;;;;;;5076346;28;20157;-83
2022/02/05 04:01:21;;;;;;;2.10;1.00;;;17.80;57.50;;;;;;5076426;28;20185;-83
2022/02/05 04:03:47;;;;;;;1.08;0.80;;;17.90;57.70;;;;;;5076151;28;20271;-82
2022/02/05 04:06:13;;;;;;;2.30;1.17;;;17.90;58.00;;;;;;5076226;28;20236;-83
2022/02/05 04:08:39;;;;;;;3.10;0.90;;;17.80;57.70;;;;;;5059484;28;20713;-83
2022/02/05 04:11:10;;;;;;;1.27;0.80;;;17.80;57.40;;;;;;5059262;28;20227;-82
2022/02/05 04:16:25;;;;;;;2.58;1.10;;;17.90;57.90;;;;;;5093910;28;20149;-83
2022/02/05 04:18:56;;;;;;;0.95;0.80;;;17.90;57.80;;;;;;5094024;28;20153;-82
2022/02/05 04:21:22;;;;;;;2.03;1.40;;;17.90;57.60;;;;;;5093023;28;20165;-82
2022/02/05 04:23:49;;;;;;;2.15;1.10;;;17.90;57.70;;;;;;5059131;28;20204;-82
2022/02/05 04:26:15;;;;;;;1.00;0.90;;;17.80;57.90;;;;;;5059087;28;20210;-82
2022/02/05 04:28:42;;;;;;;1.88;1.20;;;17.80;57.60;;;;;;5093807;28;20153;-82
2022/02/05 04:31:09;;;;;;;1.55;0.90;;;17.80;57.70;;;;;;5075663;28;20188;-82
2022/02/05 04:33:34;;;;;;;1.75;1.08;;;17.80;57.40;;;;;;5076175;28;20232;-82
2022/02/05 04:36:01;;;;;;;2.25;1.00;;;17.90;57.60;;;;;;5058990;28;20583;-81
2022/02/05 04:38:30;;;;;;;2.00;1.10;;;17.80;57.40;;;;;;5059398;28;20646;-82
2022/02/05 04:41:06;;;;;;;1.50;1.10;;;17.80;58.00;;;;;;5042482;28;20546;-82
2022/02/05 04:57:23;;;;;;;1.25;0.90;;;17.80;57.60;;;;;;5061886;28;20180;-82
2022/02/05 05:02:46;;;;;;;1.55;1.15;;;17.80;58.00;;;;;;5033903;28;20216;-82
2022/02/05 05:05:35;;;;;;;1.15;0.85;;;17.80;57.80;;;;;;5049065;28;20212;-81
2022/02/05 05:08:26;;;;;;;1.20;0.90;;;17.90;57.90;;;;;;5049677;28;20184;-82
2022/02/05 05:15:16;;;;;;;1.50;1.05;;;17.80;57.60;;;;;;5043101;28;20177;-82
2022/02/05 05:21:42;;;;;;;1.15;0.90;;;17.80;58.00;;;;;;5027333;28;20173;-82
2022/02/05 05:24:08;;;;;;;1.67;1.00;;;17.70;58.30;;;;;;5072721;28;20647;-82
2022/02/05 05:26:34;;;;;;;1.13;1.00;;;17.70;57.90;;;;;;5072836;28;20153;-82
2022/02/05 05:29:00;;;;;;;1.25;0.90;;;17.80;57.70;;;;;;5088912;28;20161;-82
2022/02/05 05:31:26;;;;;;;1.60;1.02;;;17.80;57.50;;;;;;5054925;28;20158;-81
2022/02/05 05:33:52;;;;;;;1.25;1.00;;;17.80;57.70;;;;;;5071585;28;20211;-82
2022/02/05 05:36:18;;;;;;;1.52;1.10;;;17.70;57.60;;;;;;5055150;28;20177;-82
2022/02/05 05:38:44;;;;;;;1.00;0.90;;;17.80;57.60;;;;;;5054786;28;20166;-83
2022/02/05 05:41:11;;;;;;;1.20;1.10;;;17.80;57.60;;;;;;5073084;28;20161;-83
2022/02/05 05:43:50;;;;;;;1.98;1.02;;;17.90;58.00;;;;;;5075473;28;20149;-83
2022/02/05 05:46:19;;;;;;;1.20;0.90;;;17.80;57.80;;;;;;5075896;28;20161;-83
2022/02/05 05:48:58;;;;;;;1.30;0.90;;;17.80;57.60;;;;;;5075583;28;20198;-82
2022/02/05 05:51:24;;;;;;;1.70;0.88;;;17.80;57.30;;;;;;5059501;28;20161;-82
2022/02/05 05:53:50;;;;;;;1.60;1.08;;;17.80;57.30;;;;;;5058500;28;20173;-82
2022/02/05 05:56:19;;;;;;;1.50;0.88;;;17.80;57.60;;;;;;5058626;28;20169;-82
2022/02/05 05:58:45;;;;;;;1.08;0.77;;;17.80;57.40;;;;;;5058931;28;20165;-82
2022/02/05 06:01:11;;;;;;;1.83;1.15;;;17.80;57.70;;;;;;5076375;28;20522;-82
2022/02/05 06:03:38;;;;;;;2.30;1.10;;;17.80;57.30;;;;;;5058353;28;20629;-83
2022/02/05 06:06:04;;;;;;;1.38;0.85;;;17.80;57.40;;;;;;5075029;28;20149;-82
2022/02/05 06:08:30;;;;;;;1.20;1.10;;;17.80;57.60;;;;;;5074919;28;20157;-83
2022/02/05 06:10:56;;;;;;;1.13;0.93;;;17.80;57.60;;;;;;5060271;28;20309;-83
2022/02/05 06:13:24;;;;;;;1.08;0.85;;;17.80;57.40;;;;;;5041603;28;20188;-83
2022/02/05 06:15:54;;;;;;;1.40;0.80;;;17.90;57.60;;;;;;5024544;28;20181;-83
2022/02/05 06:18:21;;;;;;;0.88;0.80;;;17.80;57.30;;;;;;5025863;28;20182;-83
2022/02/05 06:20:49;;;;;;;2.60;1.00;;;17.80;57.60;;;;;;5024573;28;20185;-83
2022/02/05 06:23:16;;;;;;;2.15;1.10;;;17.80;57.40;;;;;;5024380;28;20185;-83
2022/02/05 06:25:43;;;;;;;2.00;0.80;;;17.80;57.30;;;;;;5024351;28;20232;-83
2022/02/05 06:28:14;;;;;;;1.60;0.98;;;17.80;57.30;;;;;;4991526;28;20223;-83
2022/02/05 06:30:42;;;;;;;1.08;0.80;;;17.80;57.60;;;;;;5025112;28;20181;-83
2022/02/05 06:33:11;;;;;;;1.20;1.00;;;17.80;57.20;;;;;;5041313;28;20161;-83
2022/02/05 06:35:40;;;;;;;0.95;0.77;;;17.80;57.30;;;;;;5008115;28;20177;-83
2022/02/05 06:38:08;;;;;;;1.15;0.80;;;17.80;57.50;;;;;;5007571;28;20323;-82
2022/02/05 06:40:36;;;;;;;1.08;0.98;;;17.80;57.70;;;;;;5023757;28;20210;-82
2022/02/05 06:43:04;;;;;;;1.20;0.98;;;17.80;57.60;;;;;;5023731;28;20192;-82
2022/02/05 06:45:32;;;;;;;1.08;0.98;;;17.80;57.90;;;;;;5023836;28;20698;-81
2022/02/05 06:48:00;;;;;;;1.48;1.00;;;17.80;57.30;;;;;;5024415;28;20177;-81
2022/02/05 06:50:28;;;;;;;1.20;1.00;;;17.80;57.40;;;;;;5007599;28;20264;-82
2022/02/05 06:52:55;;;;;;;1.10;1.00;;;17.80;57.60;;;;;;5007262;28;20188;-81
2022/02/05 06:55:23;;;;;;;0.80;0.80;;;17.80;57.60;;;;;;5023882;28;20189;-81
2022/02/05 06:57:51;;;;;;;1.65;0.88;;;17.80;57.30;;;;;;5023579;28;20185;-82
2022/02/05 07:00:18;;;;;;;0.98;0.80;;;17.90;57.70;;;;;;5023708;28;20663;-82
2022/02/05 07:02:46;;;;;;;0.98;0.75;;;17.80;57.80;;;;;;5007153;28;20196;-81
2022/02/05 07:05:12;;;;;;;1.30;1.05;;;17.80;57.60;;;;;;5007452;28;20741;-82
2022/02/05 07:07:40;;;;;;;1.27;1.08;;;17.80;57.30;;;;;;5040962;28;20153;-82
2022/02/05 07:10:07;;;;;;;1.85;1.17;;;17.90;57.80;;;;;;5006891;28;20229;-81
2022/02/05 07:12:56;;;;;;;0.70;0.70;;;17.80;57.40;;;;;;5024366;28;20531;-82
2022/02/05 07:15:26;;;;;;;0.88;0.80;;;17.80;57.80;;;;;;5033794;28;20177;-82
2022/02/05 07:18:09;;;;;;;1.75;0.93;;;17.80;57.60;;;;;;5027689;28;20181;-82
2022/02/05 07:20:49;;;;;;;2.10;0.90;;;17.70;57.60;;;;;;5034548;28;20181;-82
2022/02/05 07:31:25;;;;;;;1.45;0.98;;;17.70;58.00;;;;;;5029098;28;20178;-82
2022/02/05 07:33:52;;;;;;;1.35;0.93;;;17.70;58.00;;;;;;5040043;28;20643;-83
2022/02/05 07:36:20;;;;;;;2.45;0.90;;;17.70;58.00;;;;;;5006370;28;20640;-81
2022/02/05 07:38:48;;;;;;;1.02;0.90;;;17.70;57.50;;;;;;5006487;28;20185;-82
2022/02/05 07:41:17;;;;;;;1.38;0.98;;;17.80;57.50;;;;;;5006747;28;20181;-82
2022/02/05 07:43:45;;;;;;;1.70;1.00;;;17.80;57.40;;;;;;5022377;28;20340;-81
2022/02/05 07:46:14;;;;;;;0.80;0.80;;;17.80;57.30;;;;;;5006001;28;20184;-81
2022/02/05 07:48:42;;;;;;;1.83;0.90;;;17.80;57.60;;;;;;5006585;28;20644;-82
2022/02/05 07:51:10;;;;;;;2.47;0.90;;;17.80;57.60;;;;;;5006005;28;20181;-82
2022/02/05 07:53:38;;;;;;;1.35;1.00;;;17.80;57.70;;;;;;5006247;28;20178;-81
2022/02/05 07:56:06;;;;;;;1.58;1.00;;;17.90;57.50;;;;;;5006306;28;20212;-82
2022/02/05 07:58:34;;;;;;;6.68;1.05;;;17.90;57.40;;;;;;5023107;28;20193;-82
2022/02/05 08:01:02;;;;;;;4.38;1.02;;;18.00;57.50;;;;;;5022299;28;20196;-81
2022/02/05 08:03:30;;;;;;;2.55;1.27;;;18.00;57.50;;;;;;5023870;28;20177;-82
2022/02/05 08:05:59;;;;;;;1.70;0.80;;;18.00;57.50;;;;;;5022934;28;20213;-81
2022/02/05 08:08:30;;;;;;;7.05;1.00;;;18.00;57.40;;;;;;4990729;28;20185;-81
2022/02/05 08:11:02;;;;;;;1.98;1.00;;;18.10;57.30;;;;;;5006452;28;20224;-80
2022/02/05 08:13:31;;;;;;;2.22;0.90;;;18.10;57.00;;;;;;5040804;28;20312;-82
2022/02/05 08:18:41;;;;;;;1.58;0.82;;;18.20;56.70;;;;;;5043614;28;20203;-81
2022/02/05 08:21:09;;;;;;;2.30;1.00;;;18.20;56.50;;;;;;5023909;28;20185;-81
2022/02/05 08:23:37;;;;;;;5.13;1.10;;;18.20;56.50;;;;;;5039856;28;20181;-81
2022/02/05 08:26:05;;;;;;;1.55;1.00;;;18.30;56.30;;;;;;5056523;28;20250;-81
2022/02/05 08:28:35;;;;;;;2.22;0.90;;;18.30;56.10;;;;;;5040060;28;20189;-83
2022/02/05 08:31:03;;;;;;;2.08;0.80;;;18.30;56.00;;;;;;5073381;28;20185;-82
2022/02/05 08:33:30;;;;;;;1.63;0.90;;;18.30;56.20;;;;;;5040421;28;20231;-81
2022/02/05 08:35:58;;;;;;;5.57;1.35;;;18.30;56.20;;;;;;5040655;28;20181;-81
2022/02/05 08:38:25;;;;;;;3.90;1.33;;;18.30;56.70;;;;;;5057499;28;20184;-82
2022/02/05 08:40:53;;;;;;;6.28;1.13;;;18.40;56.00;;;;;;5040768;28;20220;-81
2022/02/05 08:43:20;;;;;;;5.28;1.10;;;18.40;56.00;;;;;;5056555;28;20188;-81
2022/02/05 08:45:51;;;;;;;2.95;1.15;;;18.40;56.40;;;;;;5022139;28;20255;-82
2022/02/05 08:48:18;;;;;;;2.90;1.08;;;18.40;56.40;;;;;;5022820;28;20192;-82
2022/02/05 08:50:45;;;;;;;3.40;1.00;;;18.50;55.90;;;;;;5041514;28;20185;-83
2022/02/05 08:53:18;;;;;;;3.35;1.13;;;18.50;55.80;;;;;;5074521;28;20180;-83
2022/02/05 08:55:44;;;;;;;2.63;1.13;;;18.60;56.10;;;;;;5024610;28;20287;-81
2022/02/05 08:58:11;;;;;;;3.50;1.15;;;18.60;56.00;;;;;;5038046;28;20495;-82
2022/02/05 09:00:48;;;;;;;4.38;1.10;;;18.70;56.00;;;;;;5053647;28;20503;-82
2022/02/05 09:03:27;;;;;;;5.53;1.13;;;18.60;56.30;;;;;;5054641;28;20184;-81
2022/02/05 09:05:54;;;;;;;7.20;1.10;;;18.70;56.60;;;;;;5055012;28;20586;-81
2022/02/05 09:08:26;;;;;;;6.53;1.27;;;18.70;55.80;;;;;;5056235;28;20165;-82
2022/02/05 09:11:01;;;;;;;4.00;1.20;;;18.70;54.90;;;;;;5072926;28;20644;-80
2022/02/05 09:16:17;;;;;;;5.43;1.27;;;18.70;55.80;;;;;;5004303;28;20187;-81
2022/02/05 09:18:44;;;;;;;3.67;1.13;;;18.80;55.80;;;;;;5055205;28;20219;-80
2022/02/05 09:21:11;;;;;;;4.78;1.20;;;18.70;55.70;;;;;;5055466;28;20164;-80
2022/02/05 09:23:41;;;;;;;6.57;1.10;;;18.70;55.90;;;;;;5039569;28;20639;-81
2022/02/05 09:26:08;;;;;;;4.38;1.02;;;18.80;56.20;;;;;;5074527;28;20188;-80
2022/02/05 09:28:34;;;;;;;5.18;1.25;;;18.80;56.30;;;;;;5039271;28;20166;-81
2022/02/05 09:31:23;;;;;;;3.78;1.00;;;18.80;56.20;;;;;;5056506;28;20166;-80
2022/02/05 09:33:46;;;;;;;6.60;1.35;;;18.80;55.70;;;;;;5073922;28;20168;-81
2022/02/05 09:36:12;;;;;;;6.63;1.00;;;18.90;56.10;;;;;;5055924;28;20160;-80
2022/02/05 09:38:42;;;;;;;6.32;1.27;;;18.80;56.00;;;;;;5056325;28;20154;-80
2022/02/05 09:41:08;;;;;;;8.27;1.58;;;18.90;55.70;;;;;;4990269;28;20200;-80
2022/02/05 09:43:34;;;;;;;6.63;1.63;;;18.90;55.80;;;;;;5040701;28;20169;-80
2022/02/05 09:46:00;;;;;;;6.50;1.30;;;18.90;56.10;;;;;;5040169;28;20520;-79
2022/02/05 09:48:29;;;;;;;6.18;1.42;;;18.90;56.00;;;;;;5040234;28;20537;-80
2022/02/05 09:51:05;;;;;;;8.23;1.20;;;19.00;56.10;;;;;;5040743;28;20238;-80
2022/02/05 09:53:32;;;;;;;3.05;1.10;;;19.00;55.70;;;;;;5010876;28;20216;-81
2022/02/05 09:55:58;;;;;;;5.13;1.08;;;19.00;55.40;;;;;;5057400;28;20531;-82
2022/02/05 09:58:24;;;;;;;4.60;0.90;;;19.00;55.40;;;;;;5042016;28;20188;-82
2022/02/05 10:01:10;;;;;;;9.48;1.02;;;19.00;55.80;;;;;;5043961;28;20176;-83
2022/02/05 10:03:36;;;;;;;7.65;1.15;;;19.00;56.50;;;;;;5025315;28;20185;-83
2022/02/05 10:06:29;;;;;;;9.52;1.10;;;19.00;56.60;;;;;;5040090;28;20217;-82
2022/02/05 10:09:10;;;;;;;9.35;1.52;;;19.00;57.00;;;;;;5039241;28;20193;-81
2022/02/05 10:11:51;;;;;;;7.63;1.33;;;19.00;56.40;;;;;;5058355;28;20196;-82
2022/02/05 10:14:30;;;;;;;10.40;1.45;;;19.00;56.30;;;;;;5061255;28;20168;-80
2022/02/05 10:16:57;;;;;;;7.07;1.80;;;19.10;54.90;;;;;;5061021;28;20175;-83
2022/02/05 10:19:24;;;;;;;4.20;1.25;;;19.10;56.70;;;;;;5059849;28;20227;-81
2022/02/05 10:22:06;;;;;;;7.50;1.35;;;19.00;56.50;;;;;;5058740;28;20165;-81
2022/02/05 10:24:32;;;;;;;6.60;1.25;;;19.00;57.50;;;;;;5078871;28;20651;-83
2022/02/05 10:26:58;;;;;;;5.55;1.10;;;19.00;57.50;;;;;;5096160;28;20278;-81
2022/02/05 10:29:25;;;;;;;3.25;1.27;;;18.90;57.50;;;;;;5081528;28;20168;-82
2022/02/05 10:32:12;;;;;;;6.85;1.15;;;18.90;57.50;;;;;;5082974;28;20221;-81
2022/02/05 10:34:55;;;;;;;4.18;0.98;;;18.90;57.70;;;;;;5033582;28;20191;-80
2022/02/05 10:37:28;;;;;;;5.72;1.40;;;18.90;58.10;;;;;;5085882;28;20221;-82
2022/02/05 10:40:11;;;;;;;7.25;1.48;;;19.00;58.20;;;;;;5083811;28;20192;-82
2022/02/05 10:45:24;;;;;;;4.30;1.48;;;19.00;58.30;;;;;;5101714;28;20195;-81
2022/02/05 10:47:53;;;;;;;5.05;1.30;;;19.00;58.80;;;;;;5081380;28;20179;-81
2022/02/05 10:50:23;;;;;;;3.58;1.35;;;19.00;58.40;;;;;;5048602;28;20164;-82
2022/02/05 10:52:51;;;;;;;1.63;0.90;;;19.00;58.70;;;;;;5081352;28;20151;-83
2022/02/05 10:55:35;;;;;;;6.85;1.33;;;19.00;57.80;;;;;;5082104;28;20200;-81
2022/02/05 10:58:16;;;;;;;2.63;0.98;;;19.00;59.00;;;;;;5067193;28;20199;-81
2022/02/05 11:06:07;;;;;;;5.10;1.25;;;19.00;58.70;;;;;;5098470;28;20164;-82
2022/02/05 11:08:33;;;;;;;5.40;1.33;;;19.10;58.80;;;;;;5080125;28;20153;-81
2022/02/05 11:19:04;;;;;;;5.40;1.27;;;19.10;59.30;;;;;;5081371;28;20218;-81
2022/02/05 11:21:30;;;;;;;8.77;1.70;;;19.10;59.10;;;;;;5061634;28;20169;-82
2022/02/05 11:24:03;;;;;;;2.42;1.05;;;19.20;59.00;;;;;;5076949;28;20192;-81
2022/02/05 11:26:29;;;;;;;4.25;1.20;;;19.20;59.10;;;;;;5076489;28;20228;-81
2022/02/05 11:28:57;;;;;;;9.68;1.30;;;19.10;59.00;;;;;;5060237;28;20268;-82
2022/02/05 11:31:35;;;;;;;4.15;1.67;;;19.10;59.30;;;;;;5076952;28;20153;-82
2022/02/05 11:34:21;;;;;;;2.75;1.17;;;19.10;58.90;;;;;;5064847;28;20187;-82
2022/02/05 11:36:59;;;;;;;4.15;1.33;;;19.10;59.00;;;;;;5039597;28;20189;-82
2022/02/05 11:39:25;;;;;;;6.05;1.33;;;19.10;58.60;;;;;;5056132;28;20154;-82
2022/02/05 11:41:52;;;;;;;3.63;1.27;;;19.10;58.20;;;;;;5054798;28;20707;-82
2022/02/05 11:44:25;;;;;;;5.68;1.52;;;19.20;58.10;;;;;;5055903;28;20194;-82
2022/02/05 11:47:27;;;;;;;2.58;1.23;;;19.20;59.20;;;;;;5052295;28;20174;-81
2022/02/05 11:50:14;;;;;;;8.85;1.60;;;19.20;58.50;;;;;;5059658;28;20169;-81
2022/02/05 11:52:59;;;;;;;4.93;1.30;;;19.20;58.50;;;;;;5054368;28;20247;-81
2022/02/05 11:55:31;;;;;;;3.45;1.23;;;19.20;58.90;;;;;;5052541;28;20571;-81
2022/02/05 11:58:01;;;;;;;4.00;1.10;;;19.20;58.20;;;;;;5055541;28;20181;-81
2022/02/05 12:00:35;;;;;;;3.70;1.00;;;19.10;58.60;;;;;;5057401;28;20241;-81
2022/02/05 12:03:26;;;;;;;5.25;1.48;;;19.20;59.40;;;;;;5036062;28;20626;-81
2022/02/05 12:05:55;;;;;;;4.90;1.20;;;19.10;59.10;;;;;;5052327;28;20216;-80
2022/02/05 12:08:23;;;;;;;3.97;1.30;;;19.10;59.10;;;;;;5077744;28;20204;-81
2022/02/05 12:10:51;;;;;;;2.28;0.95;;;19.10;59.20;;;;;;5076422;28;20239;-81
2022/02/05 12:13:21;;;;;;;5.95;1.17;;;19.10;58.90;;;;;;5080848;28;20217;-81
2022/02/05 12:16:15;;;;;;;3.83;1.33;;;19.10;59.70;;;;;;5085895;28;20615;-81
2022/02/05 12:19:09;;;;;;;3.42;1.23;;;19.10;58.60;;;;;;5062597;28;20185;-81
2022/02/05 12:21:56;;;;;;;4.53;1.23;;;19.20;59.00;;;;;;5103873;28;20156;-80
2022/02/05 12:24:41;;;;;;;4.53;1.33;;;19.20;57.80;;;;;;5086484;28;20189;-80
2022/02/05 12:27:32;;;;;;;3.63;1.10;;;19.20;58.80;;;;;;5044108;28;20260;-80
2022/02/05 12:30:35;;;;;;;6.00;1.25;;;19.20;58.90;;;;;;5024247;28;20175;-80
2022/02/05 12:33:02;;;;;;;7.28;1.33;;;19.20;58.90;;;;;;5027653;28;20250;-81
2022/02/05 12:35:28;;;;;;;3.15;1.20;;;19.20;58.50;;;;;;5041731;28;20167;-81
2022/02/05 12:37:54;;;;;;;4.20;1.23;;;19.30;58.00;;;;;;5039450;28;20168;-80
2022/02/05 12:40:20;;;;;;;4.45;1.25;;;19.20;58.90;;;;;;5015773;28;20240;-79
2022/02/05 12:43:01;;;;;;;2.45;1.13;;;19.20;58.30;;;;;;5015939;28;20182;-80
2022/02/05 12:45:38;;;;;;;2.20;1.00;;;19.20;57.60;;;;;;5032846;28;20814;-81
2022/02/05 12:48:09;;;;;;;3.92;1.30;;;19.20;58.40;;;;;;5031823;28;20162;-80
2022/02/05 12:50:40;;;;;;;3.35;1.13;;;19.20;58.20;;;;;;4982765;28;20191;-81
2022/02/05 12:53:07;;;;;;;5.15;1.40;;;19.20;57.20;;;;;;5032646;28;20155;-80
2022/02/05 12:55:37;;;;;;;2.92;1.27;;;19.20;59.30;;;;;;5032356;28;20273;-80
2022/02/05 12:58:03;;;;;;;3.72;1.15;;;19.10;59.10;;;;;;5032522;28;20181;-81
2022/02/05 13:00:29;;;;;;;3.25;1.13;;;19.10;59.40;;;;;;5035714;28;20219;-79
2022/02/05 13:02:55;;;;;;;5.85;1.27;;;19.10;57.00;;;;;;5077621;28;20635;-80
2022/02/05 13:05:34;;;;;;;4.90;1.00;;;19.20;58.20;;;;;;5096547;28;20595;-81
2022/02/05 13:08:00;;;;;;;3.60;1.48;;;19.20;57.90;;;;;;5061930;28;20173;-80
2022/02/05 13:10:39;;;;;;;2.53;1.10;;;19.10;59.40;;;;;;5059401;28;20676;-81
2022/02/05 13:13:05;;;;;;;4.10;1.00;;;19.10;58.90;;;;;;5075943;28;20161;-80
2022/02/05 13:15:31;;;;;;;3.90;1.25;;;19.20;57.70;;;;;;5093647;28;20225;-80
2022/02/05 13:18:14;;;;;;;6.18;1.30;;;19.20;59.40;;;;;;5094221;28;20572;-80
2022/02/05 13:26:11;;;;;;;5.50;1.70;;;19.20;58.10;;;;;;5094201;28;20195;-81
2022/02/05 13:28:52;;;;;;;4.18;1.20;;;19.20;57.90;;;;;;5060253;28;20179;-80
2022/02/05 13:34:14;;;;;;;5.20;1.25;;;19.20;58.60;;;;;;5078038;28;20165;-80
2022/02/05 13:36:45;;;;;;;2.83;0.95;;;19.20;58.50;;;;;;5093819;28;20673;-81
2022/02/05 13:42:18;;;;;;;4.65;1.52;;;19.20;59.50;;;;;;5078355;28;20149;-82
2022/02/05 13:45:31;;;;;;;4.68;1.48;;;19.10;59.10;;;;;;5075146;28;20238;-81
2022/02/05 13:47:50;;;;;;;4.22;1.58;;;19.20;59.40;;;;;;5093033;28;20259;-81
2022/02/05 13:50:22;;;;;;;5.72;1.67;;;19.20;58.60;;;;;;5075310;28;20240;-81
2022/02/05 13:52:53;;;;;;;7.38;1.60;;;19.20;57.70;;;;;;5075638;28;20157;-81
2022/02/05 13:55:35;;;;;;;9.23;1.70;;;19.20;58.20;;;;;;5093305;28;20167;-81
2022/02/05 13:58:10;;;;;;;7.60;1.63;;;19.20;58.10;;;;;;5093704;28;20169;-81
2022/02/05 14:00:52;;;;;;;5.45;1.48;;;19.20;59.00;;;;;;5093656;28;20180;-81
2022/02/05 14:03:36;;;;;;;5.13;1.33;;;19.20;58.30;;;;;;5094696;28;20208;-81
2022/02/05 14:06:07;;;;;;;2.58;1.17;;;19.20;57.70;;;;;;5097026;28;20191;-81
2022/02/05 14:08:36;;;;;;;8.68;1.65;;;19.10;58.10;;;;;;5079557;28;20169;-82
2022/02/05 14:11:04;;;;;;;7.80;1.85;;;19.20;58.20;;;;;;5061917;28;20579;-81
2022/02/05 14:13:30;;;;;;;4.10;1.30;;;19.20;58.20;;;;;;5061520;28;20165;-81
2022/02/05 14:15:58;;;;;;;4.22;1.10;;;19.20;58.70;;;;;;5078507;28;20181;-81
2022/02/05 14:18:24;;;;;;;5.47;1.50;;;19.10;56.80;;;;;;5043330;28;20176;-81
2022/02/05 14:20:52;;;;;;;4.00;1.20;;;19.10;58.90;;;;;;5095554;28;20198;-82
2022/02/05 14:23:20;;;;;;;7.57;1.73;;;19.20;56.10;;;;;;5096666;28;20244;-81
2022/02/05 14:25:55;;;;;;;6.20;1.52;;;19.20;58.90;;;;;;5084047;28;20544;-80
2022/02/05 14:28:36;;;;;;;3.92;0.90;;;19.20;59.50;;;;;;5058751;28;20180;-82
2022/02/05 14:31:07;;;;;;;4.95;1.25;;;19.10;57.70;;;;;;5084998;28;20169;-80
2022/02/05 14:33:45;;;;;;;6.22;1.65;;;19.20;57.80;;;;;;5062116;28;20164;-81
2022/02/05 14:40:19;;;;;;;7.68;1.70;;;19.20;58.80;;;;;;5079717;28;20207;-81
2022/02/05 14:41:52;;;;;;;5.03;1.35;;;19.10;58.80;;;;;;5095969;28;20676;-81
2022/02/05 14:44:18;;;;;;;5.70;1.33;;;19.10;58.20;;;;;;5077925;28;20185;-80
2022/02/05 14:46:44;;;;;;;6.20;1.38;;;19.10;59.30;;;;;;5078141;28;20164;-81
2022/02/05 14:49:10;;;;;;;7.13;1.30;;;19.10;58.30;;;;;;5095838;28;20157;-80
2022/02/05 14:51:36;;;;;;;6.10;1.40;;;19.10;59.10;;;;;;5076931;28;20153;-80
2022/02/05 14:54:03;;;;;;;4.22;1.50;;;19.10;59.10;;;;;;5077575;28;20157;-81
2022/02/05 14:56:28;;;;;;;10.57;1.90;;;19.10;59.00;;;;;;5077208;28;20184;-82
2022/02/05 14:58:54;;;;;;;5.85;1.23;;;19.10;59.20;;;;;;5095850;28;20519;-80
2022/02/05 15:01:24;;;;;;;4.53;1.40;;;19.10;57.60;;;;;;5096108;28;20153;-80
2022/02/05 15:03:50;;;;;;;3.25;1.40;;;19.10;58.20;;;;;;5073432;28;20227;-81
2022/02/05 15:06:20;;;;;;;4.68;1.40;;;19.10;58.50;;;;;;5050335;28;20261;-81
2022/02/05 15:08:46;;;;;;;5.25;1.35;;;19.10;59.10;;;;;;5033382;28;20189;-81
2022/02/05 15:11:13;;;;;;;5.55;1.40;;;19.10;59.80;;;;;;5038240;28;20258;-81
2022/02/05 15:13:40;;;;;;;5.05;1.58;;;19.10;58.00;;;;;;5037849;28;20286;-80
2022/02/05 15:16:09;;;;;;;5.95;1.50;;;19.20;58.50;;;;;;5021783;28;20660;-80
2022/02/05 15:18:35;;;;;;;4.55;1.30;;;19.20;58.10;;;;;;5038269;28;20208;-80